createdAt,value
2023-04-28T00:02:07.937Z,9.4
2023-04-28T00:08:12.314Z,9.3
2023-04-28T00:14:04.176Z,9.1
2023-04-28T00:20:30.808Z,9.5
2023-04-28T00:26:50.955Z,8.6
2023-04-28T00:32:44.664Z,8.6
2023-04-28T00:38:37.705Z,10.2
2023-04-28T00:44:30.779Z,10.1
2023-04-28T00:50:22.734Z,8.7
2023-04-28T00:56:13.715Z,11
2023-04-28T01:02:05.337Z,11.2
2023-04-28T01:07:57.253Z,9.3
2023-04-28T01:13:49.008Z,10.5
2023-04-28T01:19:42.057Z,12.5
2023-04-28T01:25:35.387Z,10.8
2023-04-28T01:31:27.485Z,7.6
2023-04-28T01:37:18.828Z,8.7
2023-04-28T01:43:10.556Z,10.9
2023-04-28T01:49:03.271Z,10.1
2023-04-28T01:54:54.105Z,11.8
2023-04-28T02:00:44.865Z,10.3
2023-04-28T02:06:35.801Z,10.2
2023-04-28T02:12:26.393Z,11.2
2023-04-28T02:18:17.375Z,10.9
2023-04-28T02:24:09.079Z,13
2023-04-28T02:29:58.148Z,11.9
2023-04-28T02:35:48.460Z,11
2023-04-28T02:41:40.191Z,11
2023-04-28T02:47:32.418Z,12.8
2023-04-28T02:54:32.918Z,12
2023-04-28T03:00:24.808Z,11.9
2023-04-28T03:06:17.209Z,10.1
2023-04-28T03:12:08.945Z,11.9
2023-04-28T03:18:01.808Z,10.7
2023-04-28T03:23:55.070Z,14.4
2023-04-28T03:29:46.437Z,11.1
2023-04-28T03:35:39.276Z,10.7
2023-04-28T03:41:31.504Z,11.6
2023-04-28T03:47:23.284Z,12.8
2023-04-28T03:53:15.491Z,12.9
2023-04-28T03:59:08.009Z,11.9
2023-04-28T04:04:59.417Z,11.5
2023-04-28T04:10:50.811Z,12.9
2023-04-28T04:16:42.935Z,13.9
2023-04-28T04:22:35.516Z,11.4
2023-04-28T04:28:26.794Z,12.5
2023-04-28T04:34:17.638Z,11.1
2023-04-28T04:40:09.994Z,13.6
2023-04-28T04:46:01.808Z,12.3
2023-04-28T04:51:53.755Z,12
2023-04-28T04:57:45.710Z,11.7
2023-04-28T05:03:37.683Z,9.3
2023-04-28T05:09:29.558Z,10.2
2023-04-28T05:15:21.287Z,12.3
2023-04-28T05:21:14.215Z,12.7
2023-04-28T05:27:05.133Z,14.5
2023-04-28T05:32:55.294Z,12.8
2023-04-28T05:38:47.164Z,14.3
2023-04-28T05:44:37.794Z,13.7
2023-04-28T05:50:30.702Z,12.5
2023-04-28T05:56:23.174Z,13.8
2023-04-28T06:02:13.216Z,13
2023-04-28T06:08:04.061Z,14
2023-04-28T06:13:54.987Z,14.7
2023-04-28T06:19:47.078Z,12.4
2023-04-28T06:25:38.136Z,13.9
2023-04-28T06:31:29.161Z,17.7
2023-04-28T06:37:20.084Z,15.8
2023-04-28T06:43:12.094Z,15.3
2023-04-28T06:49:05.936Z,16.2
2023-04-28T06:54:59.087Z,14.8
2023-04-28T07:00:50.644Z,15.1
2023-04-28T07:06:48.996Z,13.1
2023-04-28T07:12:43.126Z,12.9
2023-04-28T07:18:37.590Z,13.6
2023-04-28T07:24:30.981Z,12.7
2023-04-28T07:30:34.444Z,14.2
2023-04-28T07:36:27.827Z,12.3
2023-04-28T07:42:21.402Z,12.7
2023-04-28T07:48:15.194Z,11.7
2023-04-28T07:54:09.337Z,13.6
2023-04-28T08:00:01.146Z,12.8
2023-04-28T08:05:54.118Z,16.7
2023-04-28T08:11:47.092Z,16.5
2023-04-28T08:17:39.139Z,17.1
2023-04-28T08:23:32.114Z,13.4
2023-04-28T08:29:24.102Z,12.6
2023-04-28T08:35:16.610Z,12.1
2023-04-28T08:41:08.919Z,14.8
2023-04-28T08:47:01.539Z,13.3
2023-04-28T08:52:53.127Z,16.5
2023-04-28T08:58:44.567Z,12.7
2023-04-28T09:04:36.433Z,14.5
2023-04-28T09:10:29.962Z,14.2
2023-04-28T09:16:23.061Z,12.4
2023-04-28T09:22:32.521Z,12.3
2023-04-28T09:28:38.132Z,15.7
2023-04-28T09:34:30.241Z,12.9
2023-04-28T09:40:21.986Z,14.6
2023-04-28T09:46:13.567Z,11.1
2023-04-28T09:52:06.086Z,12.8
2023-04-28T09:57:59.797Z,11.8
2023-04-28T10:03:53.041Z,12.6
2023-04-28T10:09:47.634Z,15.7
2023-04-28T10:15:38.628Z,14.3
2023-04-28T10:21:30.767Z,14.6
2023-04-28T10:27:22.858Z,14.9
2023-04-28T10:33:15.362Z,14.8
2023-04-28T10:39:09.834Z,10.9
2023-04-28T10:45:03.066Z,9.7
2023-04-28T10:50:56.848Z,10.2
2023-04-28T10:56:49.618Z,9.4
2023-04-28T11:02:45.758Z,7.7
2023-04-28T11:08:39.566Z,8.3
2023-04-28T11:14:30.410Z,8.7
2023-04-28T11:20:23.297Z,8.8
2023-04-28T11:26:15.585Z,9.9
2023-04-28T11:32:09.185Z,10.6
2023-04-28T11:38:00.639Z,9.2
2023-04-28T11:43:53.293Z,7.7
2023-04-28T11:49:45.127Z,7.8
2023-04-28T11:55:38.894Z,7.2
2023-04-28T12:01:30.898Z,7.6
2023-04-28T12:07:23.780Z,7.8
2023-04-28T12:13:15.611Z,5.6
2023-04-28T12:19:08.481Z,5.8
2023-04-28T12:25:00.760Z,5
2023-04-28T12:30:53.018Z,5
2023-04-28T12:36:49.197Z,4.6
2023-04-28T12:42:40.264Z,4.8
2023-04-28T12:48:31.924Z,5.1
2023-04-28T12:54:22.615Z,4
2023-04-28T13:00:15.330Z,3.1
2023-04-28T13:06:05.962Z,4.6
2023-04-28T13:11:58.773Z,4.8
2023-04-28T13:17:50.533Z,4.6
2023-04-28T13:23:43.803Z,5.9
2023-04-28T13:29:36.375Z,2.9
2023-04-28T13:35:31.301Z,2.6
2023-04-28T13:41:24.543Z,4.1
2023-04-28T13:47:17.485Z,2.5
2023-04-28T13:53:09.643Z,2.6
2023-04-28T13:59:02.019Z,3.4
2023-04-28T14:04:56.639Z,3.6
2023-04-28T14:10:49.379Z,4.3
2023-04-28T14:16:41.191Z,3.2
2023-04-28T14:22:33.252Z,4
2023-04-28T14:28:25.246Z,3
2023-04-28T14:34:17.777Z,2.2
2023-04-28T14:40:10.076Z,3
2023-04-28T14:46:02.889Z,2.9
2023-04-28T14:51:55.287Z,2.9
2023-04-28T14:57:47.580Z,2.7
2023-04-28T15:03:40.977Z,4.1
2023-04-28T15:09:33.258Z,6.7
2023-04-28T15:15:25.440Z,4.3
2023-04-28T15:21:17.559Z,4.7
2023-04-28T15:27:09.501Z,3.9
2023-04-28T15:33:02.242Z,3.8
2023-04-28T15:38:53.955Z,5
2023-04-28T15:44:46.642Z,2.9
2023-04-28T15:50:38.789Z,3.1
2023-04-28T15:56:31.058Z,2.4
2023-04-28T16:02:24.289Z,1.4
2023-04-28T16:08:16.372Z,1.6
2023-04-28T16:14:08.885Z,1.7
2023-04-28T16:20:01.489Z,1.3
2023-04-28T16:25:54.343Z,3
2023-04-28T16:31:46.946Z,1.7
2023-04-28T16:37:38.391Z,2.1
2023-04-28T16:43:36.288Z,1.9
2023-04-28T16:49:27.666Z,2.7
2023-04-28T16:55:20.025Z,3.7
2023-04-28T17:01:22.315Z,3.6
2023-04-28T17:07:32.487Z,2.8
2023-04-28T17:13:35.183Z,4.5
2023-04-28T17:25:48.957Z,3.3
2023-04-28T17:31:57.986Z,3.6
2023-04-28T17:38:03.518Z,5.2
2023-04-28T17:44:12.683Z,3.8
2023-04-28T17:50:13.734Z,2.8
2023-04-28T17:56:07.379Z,4.8
2023-04-28T18:01:58.488Z,6.9
2023-04-28T18:07:52.549Z,5.9
2023-04-28T18:13:44.289Z,2.3
2023-04-28T18:19:38.868Z,2.7
2023-04-28T18:31:48.619Z,2.1
2023-04-28T18:37:53.233Z,1.6
2023-04-28T18:43:56.534Z,1.1
2023-04-28T18:49:51.378Z,1.2
2023-04-28T18:56:54.878Z,2
2023-04-28T19:02:45.647Z,1.2
2023-04-28T19:14:35.748Z,2.1
2023-04-28T19:20:29.143Z,3.2
2023-04-28T19:26:21.234Z,2.3
2023-04-28T19:32:13.249Z,3.3
2023-04-28T19:38:04.934Z,1.1
2023-04-28T19:43:57.904Z,2.2
2023-04-28T19:49:55.140Z,1
2023-04-28T19:55:47.147Z,1.7
2023-04-28T20:01:40.686Z,1.4
2023-04-28T20:07:32.922Z,1.5
2023-04-28T20:13:25.317Z,3
2023-04-28T20:19:28.204Z,1.6
2023-04-28T20:25:22.063Z,3.2
2023-04-28T20:31:14.352Z,2.4
2023-04-28T20:37:07.836Z,2.8
2023-04-28T20:43:00.002Z,3.9
2023-04-28T20:48:52.492Z,10.6
2023-04-28T20:54:45.057Z,2.3
2023-04-28T21:00:36.674Z,2.6
2023-04-28T21:06:35.839Z,26.8
2023-04-28T21:26:26.794Z,1.8
2023-04-28T21:32:28.748Z,2.3
2023-04-28T21:39:03.613Z,2.9
2023-04-28T21:44:58.837Z,2.8
2023-04-28T21:50:56.336Z,2.3
2023-04-28T21:56:50.837Z,2.4
2023-04-28T22:02:46.979Z,3.9
2023-04-28T22:08:54.853Z,4.1
2023-04-28T22:14:47.191Z,3.6
2023-04-28T22:20:42.584Z,3.6
2023-04-28T22:26:56.670Z,4.1
2023-04-28T23:04:00.315Z,6.2
2023-04-28T23:09:56.770Z,7
2023-04-28T23:15:47.812Z,5.4
2023-04-28T23:21:40.622Z,6.2
2023-04-28T23:27:33.349Z,5.6
2023-04-28T23:33:25.404Z,6.8
2023-04-28T23:39:17.012Z,7.5
2023-04-28T23:45:09.135Z,11.4
2023-04-28T23:51:00.715Z,13.6
2023-04-28T23:56:52.720Z,13.2
